createdAt,value
2023-05-13T00:00:19.249Z,26.00
2023-05-13T00:02:48.764Z,26.00
2023-05-13T00:05:18.476Z,26.00
2023-05-13T00:07:47.608Z,26.00
2023-05-13T00:10:17.524Z,26.10
2023-05-13T00:12:46.773Z,26.10
2023-05-13T00:15:16.257Z,26.10
2023-05-13T00:17:45.789Z,26.10
2023-05-13T00:20:15.053Z,26.10
2023-05-13T00:22:44.523Z,26.20
2023-05-13T00:25:13.736Z,26.20
2023-05-13T00:27:42.933Z,26.30
2023-05-13T00:30:12.718Z,26.30
2023-05-13T00:32:41.976Z,26.30
2023-05-13T00:35:11.560Z,26.30
2023-05-13T00:37:40.766Z,26.30
2023-05-13T00:40:23.740Z,26.30
2023-05-13T00:42:53.819Z,26.30
2023-05-13T00:45:23.144Z,26.30
2023-05-13T00:47:52.953Z,26.30
2023-05-13T00:50:22.910Z,26.30
2023-05-13T00:52:53.167Z,26.30
2023-05-13T00:55:23.174Z,26.30
2023-05-13T00:57:52.351Z,26.30
2023-05-13T01:00:22.065Z,26.20
2023-05-13T01:02:55.017Z,26.30
2023-05-13T01:06:15.061Z,26.30
2023-05-13T01:09:17.337Z,26.30
2023-05-13T01:11:51.662Z,26.30
2023-05-13T01:14:37.020Z,26.40
2023-05-13T01:17:33.086Z,26.40
2023-05-13T01:20:06.812Z,26.50
2023-05-13T01:22:36.044Z,26.50
2023-05-13T01:25:05.310Z,26.60
2023-05-13T01:27:34.588Z,26.60
2023-05-13T01:30:04.559Z,26.60
2023-05-13T01:32:37.285Z,26.70
2023-05-13T01:35:08.937Z,26.70
2023-05-13T01:37:39.759Z,26.70
2023-05-13T01:40:24.282Z,26.80
2023-05-13T01:43:00.236Z,26.80
2023-05-13T01:45:36.434Z,26.90
2023-05-13T01:48:05.986Z,27.00
2023-05-13T01:50:35.291Z,27.00
2023-05-13T01:53:04.430Z,27.00
2023-05-13T01:55:33.498Z,27.10
2023-05-13T01:58:14.146Z,27.10
2023-05-13T02:03:52.583Z,27.10
2023-05-13T02:06:26.800Z,27.10
2023-05-13T02:08:56.114Z,27.20
2023-05-13T02:11:29.157Z,27.20
2023-05-13T02:14:08.325Z,27.30
2023-05-13T02:16:37.488Z,27.30
2023-05-13T02:19:08.254Z,27.30
2023-05-13T02:21:37.519Z,27.30
2023-05-13T02:24:08.902Z,27.30
2023-05-13T02:26:45.011Z,27.30
2023-05-13T02:29:14.235Z,27.30
2023-05-13T02:31:44.191Z,27.30
2023-05-13T02:34:13.348Z,27.30
2023-05-13T02:36:42.472Z,27.30
2023-05-13T02:39:11.632Z,27.30
2023-05-13T02:41:41.089Z,27.30
2023-05-13T02:44:10.154Z,27.30
2023-05-13T02:46:39.357Z,27.30
2023-05-13T02:49:08.475Z,27.30
2023-05-13T02:51:37.568Z,27.30
2023-05-13T02:54:06.744Z,27.30
2023-05-13T02:56:35.801Z,27.30
2023-05-13T02:59:04.875Z,27.30
2023-05-13T03:01:34.193Z,27.30
2023-05-13T03:04:09.616Z,27.30
2023-05-13T03:06:39.000Z,27.30
2023-05-13T03:09:08.261Z,27.30
2023-05-13T03:11:42.975Z,27.30
2023-05-13T03:14:12.168Z,27.30
2023-05-13T03:16:45.883Z,27.30
2023-05-13T03:19:14.993Z,27.30
2023-05-13T03:21:44.121Z,27.30
2023-05-13T03:24:13.237Z,27.30
2023-05-13T03:26:42.389Z,27.30
2023-05-13T03:29:11.600Z,27.30
2023-05-13T03:31:40.953Z,27.40
2023-05-13T03:34:09.977Z,27.40
2023-05-13T03:36:39.251Z,27.40
2023-05-13T03:39:08.409Z,27.50
2023-05-13T03:41:38.775Z,27.60
2023-05-13T03:44:07.928Z,27.60
2023-05-13T03:46:37.135Z,27.70
2023-05-13T03:49:06.299Z,27.70
2023-05-13T03:51:35.498Z,27.70
2023-05-13T03:54:04.887Z,27.70
2023-05-13T03:56:33.999Z,27.70
2023-05-13T03:59:03.118Z,27.70
2023-05-13T04:01:32.801Z,27.70
2023-05-13T04:04:02.052Z,27.60
2023-05-13T04:06:31.406Z,27.60
2023-05-13T04:09:02.184Z,27.50
2023-05-13T04:11:32.479Z,27.40
2023-05-13T04:14:03.803Z,27.40
2023-05-13T04:16:35.727Z,27.30
2023-05-13T04:19:05.100Z,27.30
2023-05-13T04:21:34.389Z,27.20
2023-05-13T04:24:03.575Z,27.20
2023-05-13T04:26:32.691Z,27.20
2023-05-13T04:29:01.819Z,27.10
2023-05-13T04:31:31.218Z,27.00
2023-05-13T04:34:00.546Z,26.90
2023-05-13T04:36:29.724Z,26.90
2023-05-13T04:38:58.928Z,26.80
2023-05-13T04:41:28.094Z,26.80
2023-05-13T04:43:57.283Z,26.80
2023-05-13T04:46:27.033Z,26.90
2023-05-13T04:49:02.536Z,26.90
2023-05-13T04:51:33.486Z,26.90
2023-05-13T04:54:06.365Z,26.90
2023-05-13T04:56:35.813Z,26.90
2023-05-13T04:59:04.883Z,26.90
2023-05-13T05:01:34.188Z,26.90
2023-05-13T05:04:03.672Z,26.90
2023-05-13T05:06:33.608Z,26.80
2023-05-13T05:09:02.694Z,26.80
2023-05-13T05:11:31.873Z,26.80
2023-05-13T05:14:00.995Z,26.80
2023-05-13T05:16:30.070Z,26.70
2023-05-13T05:18:59.119Z,26.70
2023-05-13T05:21:28.464Z,26.60
2023-05-13T05:23:57.918Z,26.50
2023-05-13T05:26:27.148Z,26.40
2023-05-13T05:28:56.338Z,26.40
2023-05-13T05:31:25.540Z,26.40
2023-05-13T05:33:54.887Z,26.40
2023-05-13T05:36:24.126Z,26.40
2023-05-13T05:38:53.699Z,26.50
2023-05-13T05:41:23.200Z,26.40
2023-05-13T05:43:52.402Z,26.40
2023-05-13T05:46:21.496Z,26.30
2023-05-13T05:48:54.920Z,26.20
2023-05-13T05:51:28.226Z,26.00
2023-05-13T05:53:59.595Z,25.90
2023-05-13T05:56:37.735Z,25.80
2023-05-13T05:59:11.579Z,25.70
2023-05-13T06:01:40.733Z,25.60
2023-05-13T06:04:09.919Z,25.60
2023-05-13T06:06:41.346Z,25.50
2023-05-13T06:09:10.485Z,25.50
2023-05-13T06:11:45.076Z,25.50
2023-05-13T06:14:14.187Z,25.50
2023-05-13T06:16:43.274Z,25.40
2023-05-13T06:19:12.558Z,25.40
2023-05-13T06:21:44.090Z,25.40
2023-05-13T06:24:13.235Z,25.40
2023-05-13T06:26:42.400Z,25.40
2023-05-13T06:29:11.493Z,25.50
2023-05-13T06:31:40.597Z,25.40
2023-05-13T06:34:09.740Z,25.40
2023-05-13T06:36:38.851Z,25.50
2023-05-13T06:39:07.875Z,25.50
2023-05-13T06:41:37.029Z,25.50
2023-05-13T06:44:07.622Z,25.50
2023-05-13T06:46:37.154Z,25.50
2023-05-13T06:49:06.288Z,25.50
2023-05-13T06:51:35.921Z,25.50
2023-05-13T06:54:05.268Z,25.50
2023-05-13T06:56:34.472Z,25.50
2023-05-13T06:59:03.541Z,25.50
2023-05-13T07:01:32.820Z,25.50
2023-05-13T07:04:02.017Z,25.40
2023-05-13T07:06:31.578Z,25.40
2023-05-13T07:09:00.912Z,25.40
2023-05-13T07:11:30.125Z,25.50
2023-05-13T07:13:59.238Z,25.50
2023-05-13T07:16:28.559Z,25.50
2023-05-13T07:18:57.738Z,25.50
2023-05-13T07:21:26.920Z,25.50
2023-05-13T07:23:55.984Z,25.60
2023-05-13T07:26:25.218Z,25.60
2023-05-13T07:28:54.260Z,25.60
2023-05-13T07:31:23.412Z,25.70
2023-05-13T07:33:52.513Z,25.70
2023-05-13T07:36:21.659Z,25.70
2023-05-13T07:38:50.865Z,25.80
2023-05-13T07:41:19.985Z,25.80
2023-05-13T07:43:49.232Z,25.80
2023-05-13T07:46:18.320Z,25.90
2023-05-13T07:48:47.400Z,25.90
2023-05-13T07:51:19.289Z,26.00
2023-05-13T07:53:48.428Z,26.00
2023-05-13T07:56:17.446Z,26.10
2023-05-13T07:58:47.023Z,26.10
2023-05-13T08:01:16.352Z,26.20
2023-05-13T08:03:45.559Z,26.30
2023-05-13T08:06:14.817Z,26.40
2023-05-13T08:08:43.860Z,26.40
2023-05-13T08:11:13.262Z,26.50
2023-05-13T08:13:42.288Z,26.60
2023-05-13T08:16:11.463Z,26.60
2023-05-13T08:18:40.640Z,26.60
2023-05-13T08:21:09.717Z,26.70
2023-05-13T08:23:45.413Z,26.70
2023-05-13T08:26:15.838Z,26.70
2023-05-13T08:28:44.962Z,26.80
2023-05-13T08:31:17.863Z,26.80
2023-05-13T08:33:49.408Z,26.80
2023-05-13T08:36:18.900Z,26.80
2023-05-13T08:38:48.214Z,26.80
2023-05-13T08:41:18.956Z,26.90
2023-05-13T08:43:53.275Z,26.90
2023-05-13T08:46:33.714Z,26.90
2023-05-13T08:49:04.724Z,26.90
2023-05-13T08:51:33.905Z,27.00
2023-05-13T08:54:04.720Z,27.00
2023-05-13T08:56:33.897Z,27.10
2023-05-13T08:59:03.140Z,27.10
2023-05-13T09:01:33.922Z,27.20
2023-05-13T09:04:11.377Z,27.30
2023-05-13T09:06:40.503Z,27.40
2023-05-13T09:09:10.711Z,27.50
2023-05-13T09:11:43.286Z,27.60
2023-05-13T09:14:15.250Z,27.60
2023-05-13T09:16:44.647Z,27.70
2023-05-13T09:19:14.724Z,27.80
2023-05-13T09:21:46.322Z,27.80
2023-05-13T09:24:22.311Z,27.90
2023-05-13T09:26:53.160Z,27.90
2023-05-13T09:29:31.420Z,27.90
2023-05-13T09:32:03.373Z,28.00
2023-05-13T09:34:35.264Z,28.10
2023-05-13T09:37:09.774Z,28.10
2023-05-13T09:39:43.455Z,28.20
2023-05-13T09:42:20.430Z,28.10
2023-05-13T09:44:50.827Z,28.20
2023-05-13T09:47:20.027Z,28.30
2023-05-13T09:49:58.672Z,28.30
2023-05-13T09:52:27.735Z,28.30
2023-05-13T09:55:00.378Z,28.40
2023-05-13T09:57:30.392Z,28.50
2023-05-13T10:00:12.797Z,28.60
2023-05-13T10:02:44.595Z,28.60
2023-05-13T10:05:14.221Z,28.70
2023-05-13T10:07:43.565Z,28.80
2023-05-13T10:10:13.507Z,28.90
2023-05-13T10:12:44.054Z,28.90
2023-05-13T10:15:13.372Z,28.90
2023-05-13T10:17:45.761Z,28.90
2023-05-13T10:20:15.646Z,28.80
2023-05-13T10:22:46.019Z,28.70
2023-05-13T10:25:15.077Z,28.60
2023-05-13T10:27:46.289Z,28.60
2023-05-13T10:30:17.236Z,28.60
2023-05-13T10:32:47.123Z,28.60
2023-05-13T10:35:19.996Z,28.60
2023-05-13T10:38:21.777Z,28.60
2023-05-13T10:42:01.041Z,28.70
2023-05-13T10:44:30.417Z,28.70
2023-05-13T10:47:00.118Z,28.70
2023-05-13T10:49:36.127Z,28.60
2023-05-13T10:52:12.765Z,28.60
2023-05-13T10:54:43.329Z,28.50
2023-05-13T10:57:15.096Z,28.40
2023-05-13T11:00:18.222Z,28.30
2023-05-13T11:02:47.593Z,28.20
2023-05-13T11:05:23.387Z,28.20
2023-05-13T11:07:59.577Z,28.20
2023-05-13T11:10:33.955Z,28.10
2023-05-13T11:13:12.805Z,28.10
2023-05-13T11:15:56.511Z,28.10
2023-05-13T11:18:32.846Z,28.10
2023-05-13T11:21:06.337Z,28.10
2023-05-13T11:23:59.357Z,28.00
2023-05-13T11:26:42.404Z,28.00
2023-05-13T11:29:11.584Z,27.80
2023-05-13T11:32:00.069Z,27.80
2023-05-13T11:34:30.993Z,27.70
2023-05-13T11:37:05.959Z,27.70
2023-05-13T11:39:36.078Z,27.60
2023-05-13T11:42:10.782Z,27.60
2023-05-13T11:44:48.265Z,27.50
2023-05-13T11:47:28.621Z,27.40
2023-05-13T11:49:58.292Z,27.40
2023-05-13T11:52:30.274Z,27.40
2023-05-13T11:55:00.073Z,27.30
2023-05-13T11:57:33.667Z,27.30
2023-05-13T12:00:09.927Z,27.30
2023-05-13T12:02:42.645Z,27.20
2023-05-13T12:05:13.815Z,27.20
2023-05-13T12:07:43.012Z,27.20
2023-05-13T12:10:12.887Z,27.10
2023-05-13T12:12:45.658Z,27.10
2023-05-13T12:15:24.835Z,27.10
2023-05-13T12:18:01.632Z,27.00
2023-05-13T12:20:30.924Z,27.00
2023-05-13T12:23:04.015Z,27.00
2023-05-13T12:25:52.394Z,26.90
2023-05-13T12:28:24.608Z,26.90
2023-05-13T12:31:01.615Z,26.80
2023-05-13T12:33:43.926Z,26.80
2023-05-13T12:36:36.735Z,26.80
2023-05-13T12:39:12.070Z,26.70
2023-05-13T12:41:55.126Z,26.70
2023-05-13T12:44:27.668Z,26.60
2023-05-13T12:47:02.824Z,26.60
2023-05-13T12:49:32.132Z,26.60
2023-05-13T12:52:01.266Z,26.60
2023-05-13T12:54:30.413Z,26.60
2023-05-13T12:56:59.716Z,26.60
2023-05-13T12:59:30.488Z,26.60
2023-05-13T13:02:00.147Z,26.50
2023-05-13T13:04:31.197Z,26.50
2023-05-13T13:07:00.480Z,26.50
2023-05-13T13:09:29.645Z,26.50
2023-05-13T13:11:58.777Z,26.50
2023-05-13T13:14:27.962Z,26.50
2023-05-13T13:16:57.134Z,26.50
2023-05-13T13:19:26.610Z,26.50
2023-05-13T13:21:55.914Z,26.40
2023-05-13T13:24:25.183Z,26.40
2023-05-13T13:26:56.524Z,26.40
2023-05-13T13:29:26.012Z,26.40
2023-05-13T13:31:55.241Z,26.40
2023-05-13T13:34:24.413Z,26.40
2023-05-13T13:36:53.671Z,26.40
2023-05-13T13:39:23.450Z,26.40
2023-05-13T13:41:52.563Z,26.50
2023-05-13T13:44:21.748Z,26.50
2023-05-13T13:46:51.366Z,26.50
2023-05-13T13:49:23.869Z,26.50
2023-05-13T13:51:56.668Z,26.50
2023-05-13T13:54:25.827Z,26.50
2023-05-13T13:56:55.388Z,26.50
2023-05-13T13:59:45.024Z,26.50
2023-05-13T14:02:14.430Z,26.50
2023-05-13T14:04:43.859Z,26.50
2023-05-13T14:07:22.260Z,26.50
2023-05-13T14:09:54.314Z,26.50
2023-05-13T14:12:29.538Z,26.50
2023-05-13T14:15:10.371Z,26.50
2023-05-13T14:17:47.853Z,26.50
2023-05-13T14:20:17.132Z,26.50
2023-05-13T14:22:46.358Z,26.50
2023-05-13T14:25:15.988Z,26.50
2023-05-13T14:27:45.203Z,26.50
2023-05-13T14:30:14.833Z,26.50
2023-05-13T14:32:48.245Z,26.50
2023-05-13T14:35:18.505Z,26.50
2023-05-13T14:37:48.292Z,26.50
2023-05-13T14:40:17.604Z,26.50
2023-05-13T14:42:46.848Z,26.50
2023-05-13T14:45:18.381Z,26.50
2023-05-13T14:47:48.242Z,26.50
2023-05-13T14:50:17.521Z,26.50
2023-05-13T14:52:47.287Z,26.50
2023-05-13T14:55:20.997Z,26.50
2023-05-13T14:57:50.502Z,26.50
2023-05-13T15:00:20.504Z,26.50
2023-05-13T15:02:50.052Z,26.50
2023-05-13T15:05:19.596Z,26.50
2023-05-13T15:07:51.798Z,26.50
2023-05-13T15:10:21.502Z,26.50
2023-05-13T15:12:50.860Z,26.50
2023-05-13T15:15:20.126Z,26.40
2023-05-13T15:17:49.720Z,26.40
2023-05-13T15:20:20.076Z,26.40
2023-05-13T15:22:51.366Z,26.40
2023-05-13T15:25:20.718Z,26.40
2023-05-13T15:27:50.962Z,26.40
2023-05-13T15:30:20.643Z,26.50
2023-05-13T15:32:50.080Z,26.50
2023-05-13T15:35:19.413Z,26.50
2023-05-13T15:37:48.811Z,26.50
2023-05-13T15:40:18.227Z,26.40
2023-05-13T15:42:49.207Z,26.40
2023-05-13T15:45:18.719Z,26.40
2023-05-13T15:47:51.078Z,26.40
2023-05-13T15:50:23.516Z,26.40
2023-05-13T15:52:53.209Z,26.40
2023-05-13T15:55:25.391Z,26.40
2023-05-13T15:57:54.627Z,26.30
2023-05-13T16:00:24.739Z,26.30
2023-05-13T16:02:54.118Z,26.30
2023-05-13T16:05:23.459Z,26.30
2023-05-13T16:07:52.561Z,26.30
2023-05-13T16:10:21.989Z,26.30
2023-05-13T16:12:51.387Z,26.20
2023-05-13T16:15:21.565Z,26.20
2023-05-13T16:17:50.791Z,26.20
2023-05-13T16:20:22.974Z,26.20
2023-05-13T16:22:52.227Z,26.20
2023-05-13T16:25:23.647Z,26.20
2023-05-13T16:27:54.499Z,26.20
2023-05-13T16:30:24.572Z,26.20
2023-05-13T16:32:55.203Z,26.20
2023-05-13T16:35:24.793Z,26.20
2023-05-13T16:37:53.955Z,26.20
2023-05-13T16:40:23.342Z,26.20
2023-05-13T16:42:52.705Z,26.20
2023-05-13T16:45:22.032Z,26.20
2023-05-13T16:47:52.108Z,26.20
2023-05-13T16:50:21.583Z,26.20
2023-05-13T16:52:50.717Z,26.20
2023-05-13T16:55:27.060Z,26.10
2023-05-13T16:57:56.356Z,26.10
2023-05-13T17:00:25.595Z,26.10
2023-05-13T17:02:55.489Z,26.10
2023-05-13T17:05:24.762Z,26.10
2023-05-13T17:07:54.048Z,26.10
2023-05-13T17:10:23.405Z,26.10
2023-05-13T17:12:57.670Z,26.10
2023-05-13T17:15:27.564Z,26.00
2023-05-13T17:17:57.137Z,26.00
2023-05-13T17:20:26.518Z,26.00
2023-05-13T17:22:55.703Z,26.00
2023-05-13T17:25:24.858Z,26.00
2023-05-13T17:27:54.047Z,26.00
2023-05-13T17:30:24.089Z,26.00
2023-05-13T17:32:56.685Z,26.00
2023-05-13T17:35:25.956Z,26.00
2023-05-13T17:37:55.251Z,26.00
2023-05-13T17:40:24.673Z,25.90
2023-05-13T17:42:54.009Z,26.00
2023-05-13T17:45:24.132Z,26.00
2023-05-13T17:47:53.458Z,25.90
2023-05-13T17:50:23.324Z,25.90
2023-05-13T17:52:53.367Z,25.90
2023-05-13T17:55:22.579Z,25.90
2023-05-13T17:57:51.757Z,25.90
2023-05-13T18:00:21.915Z,25.90
2023-05-13T18:02:51.488Z,25.90
2023-05-13T18:05:22.637Z,25.90
2023-05-13T18:07:52.239Z,25.90
2023-05-13T18:10:21.731Z,25.90
2023-05-13T18:12:52.748Z,25.90
2023-05-13T18:15:22.348Z,25.90
2023-05-13T18:17:52.102Z,25.80
2023-05-13T18:20:22.445Z,25.90
2023-05-13T18:22:51.826Z,25.80
2023-05-13T18:25:21.029Z,25.90
2023-05-13T18:27:51.478Z,25.80
2023-05-13T18:30:21.246Z,25.80
2023-05-13T18:32:51.760Z,25.80
2023-05-13T18:35:22.463Z,25.80
2023-05-13T18:37:52.273Z,25.80
2023-05-13T18:40:22.305Z,25.80
2023-05-13T18:42:51.699Z,25.80
2023-05-13T18:45:20.944Z,25.80
2023-05-13T18:47:50.239Z,25.80
2023-05-13T18:50:19.530Z,25.80
2023-05-13T18:52:48.787Z,25.80
2023-05-13T18:55:18.164Z,25.80
2023-05-13T18:57:47.445Z,25.80
2023-05-13T19:00:17.237Z,25.80
2023-05-13T19:02:47.327Z,25.80
2023-05-13T19:05:18.451Z,25.80
2023-05-13T19:07:49.601Z,25.80
2023-05-13T19:10:18.785Z,25.80
2023-05-13T19:12:47.946Z,25.80
2023-05-13T19:15:17.252Z,25.80
2023-05-13T19:17:47.366Z,25.80
2023-05-13T19:20:18.294Z,25.80
2023-05-13T19:22:47.526Z,25.80
2023-05-13T19:25:16.903Z,25.80
2023-05-13T19:27:50.432Z,25.80
2023-05-13T19:30:19.660Z,25.80
2023-05-13T19:32:48.971Z,25.80
2023-05-13T19:35:18.872Z,25.80
2023-05-13T19:37:48.068Z,25.80
2023-05-13T19:40:17.352Z,25.80
2023-05-13T19:42:46.580Z,25.80
2023-05-13T19:45:15.908Z,25.80
2023-05-13T19:47:45.125Z,25.80
2023-05-13T19:50:15.260Z,25.80
2023-05-13T19:52:44.761Z,25.80
2023-05-13T19:55:14.404Z,25.80
2023-05-13T19:57:44.295Z,25.70
2023-05-13T20:00:16.138Z,25.70
2023-05-13T20:02:45.556Z,25.70
2023-05-13T20:05:14.821Z,25.70
2023-05-13T20:07:44.027Z,25.70
2023-05-13T20:10:13.746Z,25.70
2023-05-13T20:12:43.117Z,25.70
2023-05-13T20:15:12.842Z,25.70
2023-05-13T20:17:42.694Z,25.70
2023-05-13T20:20:12.458Z,25.70
2023-05-13T20:22:41.677Z,25.70
2023-05-13T20:25:12.075Z,25.70
2023-05-13T20:27:41.348Z,25.70
2023-05-13T20:30:11.479Z,25.70
2023-05-13T20:32:40.848Z,25.70
2023-05-13T20:35:11.155Z,25.70
2023-05-13T20:37:40.339Z,25.70
2023-05-13T20:40:10.406Z,25.70
2023-05-13T20:42:39.664Z,25.70
2023-05-13T20:45:09.697Z,25.60
2023-05-13T20:47:38.886Z,25.60
2023-05-13T20:50:08.902Z,25.60
2023-05-13T20:52:38.272Z,25.60
2023-05-13T20:55:08.182Z,25.60
2023-05-13T20:57:37.324Z,25.60
2023-05-13T21:00:07.243Z,25.60
2023-05-13T21:02:36.835Z,25.70
2023-05-13T21:05:06.446Z,25.70
2023-05-13T21:07:37.118Z,25.70
2023-05-13T21:10:07.078Z,25.70
2023-05-13T21:12:36.181Z,25.60
2023-05-13T21:15:05.690Z,25.60
2023-05-13T21:17:34.949Z,25.70
2023-05-13T21:20:05.140Z,25.70
2023-05-13T21:22:34.313Z,25.70
2023-05-13T21:25:03.675Z,25.70
2023-05-13T21:27:32.851Z,25.80
2023-05-13T21:30:02.030Z,25.70
2023-05-13T21:32:31.278Z,25.80
2023-05-13T21:35:00.483Z,25.70
2023-05-13T21:37:29.795Z,25.70
2023-05-13T21:39:59.082Z,25.60
2023-05-13T21:42:28.388Z,25.50
2023-05-13T21:44:58.269Z,25.50
2023-05-13T21:47:29.945Z,25.40
2023-05-13T21:49:59.449Z,25.40
2023-05-13T21:52:28.696Z,25.30
2023-05-13T21:54:58.053Z,25.30
2023-05-13T21:57:27.391Z,25.30
2023-05-13T21:59:56.673Z,25.30
2023-05-13T22:02:26.273Z,25.30
2023-05-13T22:04:55.401Z,25.30
2023-05-13T22:07:24.684Z,25.30
2023-05-13T22:09:53.874Z,25.40
2023-05-13T22:12:23.043Z,25.40
2023-05-13T22:14:53.281Z,25.40
2023-05-13T22:17:23.382Z,25.40
2023-05-13T22:19:52.858Z,25.50
2023-05-13T22:22:21.982Z,25.50
2023-05-13T22:24:51.445Z,25.50
2023-05-13T22:27:20.655Z,25.50
2023-05-13T22:29:49.721Z,25.50
2023-05-13T22:32:18.819Z,25.50
2023-05-13T22:34:48.178Z,25.50
2023-05-13T22:37:17.571Z,25.40
2023-05-13T22:39:46.792Z,25.40
2023-05-13T22:42:15.912Z,25.40
2023-05-13T22:44:45.051Z,25.40
2023-05-13T22:47:14.154Z,25.40
2023-05-13T22:49:43.363Z,25.50
2023-05-13T22:52:12.499Z,25.50
2023-05-13T22:54:42.511Z,25.50
2023-05-13T22:57:12.214Z,25.50
2023-05-13T22:59:41.394Z,25.50
2023-05-13T23:02:10.655Z,25.50
2023-05-13T23:04:39.950Z,25.50
2023-05-13T23:07:10.145Z,25.40
2023-05-13T23:09:39.358Z,25.50
2023-05-13T23:12:09.103Z,25.40
2023-05-13T23:14:38.233Z,25.40
2023-05-13T23:17:07.492Z,25.40
2023-05-13T23:19:39.017Z,25.50
2023-05-13T23:22:08.152Z,25.50
2023-05-13T23:24:37.292Z,25.50
2023-05-13T23:27:06.740Z,25.50
2023-05-13T23:29:35.951Z,25.50
2023-05-13T23:32:06.666Z,25.50
2023-05-13T23:34:36.462Z,25.60
2023-05-13T23:37:06.062Z,25.60
2023-05-13T23:39:35.237Z,25.60
2023-05-13T23:42:04.497Z,25.60
2023-05-13T23:44:36.287Z,25.60
2023-05-13T23:47:06.769Z,25.70
2023-05-13T23:49:35.973Z,25.70
2023-05-13T23:52:05.344Z,25.70
2023-05-13T23:54:34.568Z,25.80
2023-05-13T23:57:03.790Z,25.80
2023-05-13T23:59:33.071Z,25.80
